sensor_id;sensor_type;location;lat;lon;timestamp;P1;durP1;ratioP1;P2;durP2;ratioP2
56419;SDS011;42323;52.170;7.538;2022-09-09T00:01:32;4.93;;;2.80;;
56419;SDS011;42323;52.170;7.538;2022-09-09T00:04:35;8.40;;;3.38;;
56419;SDS011;42323;52.170;7.538;2022-09-09T00:07:18;4.97;;;2.80;;
56419;SDS011;42323;52.170;7.538;2022-09-09T00:15:46;4.85;;;2.75;;
56419;SDS011;42323;52.170;7.538;2022-09-09T00:18:31;3.47;;;2.50;;
56419;SDS011;42323;52.170;7.538;2022-09-09T00:21:07;3.65;;;2.58;;
56419;SDS011;42323;52.170;7.538;2022-09-09T00:23:39;4.20;;;2.72;;
56419;SDS011;42323;52.170;7.538;2022-09-09T00:29:10;4.93;;;2.63;;
56419;SDS011;42323;52.170;7.538;2022-09-09T00:31:39;4.80;;;2.53;;
56419;SDS011;42323;52.170;7.538;2022-09-09T00:36:40;4.32;;;3.13;;
56419;SDS011;42323;52.170;7.538;2022-09-09T00:39:09;4.88;;;2.90;;
56419;SDS011;42323;52.170;7.538;2022-09-09T00:55:27;5.72;;;2.92;;
56419;SDS011;42323;52.170;7.538;2022-09-09T00:58:09;3.92;;;2.60;;
56419;SDS011;42323;52.170;7.538;2022-09-09T01:06:38;2.60;;;2.00;;
56419;SDS011;42323;52.170;7.538;2022-09-09T01:12:28;3.40;;;1.90;;
56419;SDS011;42323;52.170;7.538;2022-09-09T01:18:23;1.73;;;1.38;;
56419;SDS011;42323;52.170;7.538;2022-09-09T01:21:13;5.05;;;2.20;;
56419;SDS011;42323;52.170;7.538;2022-09-09T01:26:30;3.50;;;1.52;;
56419;SDS011;42323;52.170;7.538;2022-09-09T01:29:01;2.85;;;1.48;;
56419;SDS011;42323;52.170;7.538;2022-09-09T01:31:30;4.15;;;1.60;;
56419;SDS011;42323;52.170;7.538;2022-09-09T01:34:01;3.03;;;1.90;;
56419;SDS011;42323;52.170;7.538;2022-09-09T01:36:38;3.80;;;1.60;;
56419;SDS011;42323;52.170;7.538;2022-09-09T01:39:07;3.78;;;1.90;;
56419;SDS011;42323;52.170;7.538;2022-09-09T01:41:34;3.15;;;1.90;;
56419;SDS011;42323;52.170;7.538;2022-09-09T01:44:01;4.05;;;1.70;;
56419;SDS011;42323;52.170;7.538;2022-09-09T01:46:28;5.38;;;1.95;;
56419;SDS011;42323;52.170;7.538;2022-09-09T01:48:55;2.85;;;1.63;;
56419;SDS011;42323;52.170;7.538;2022-09-09T01:51:25;2.38;;;1.70;;
56419;SDS011;42323;52.170;7.538;2022-09-09T01:53:51;2.55;;;1.80;;
56419;SDS011;42323;52.170;7.538;2022-09-09T02:06:53;4.03;;;2.30;;
56419;SDS011;42323;52.170;7.538;2022-09-09T02:09:25;2.40;;;1.77;;
56419;SDS011;42323;52.170;7.538;2022-09-09T02:11:55;4.47;;;2.38;;
56419;SDS011;42323;52.170;7.538;2022-09-09T02:14:47;3.15;;;2.33;;
56419;SDS011;42323;52.170;7.538;2022-09-09T02:17:20;3.90;;;2.65;;
56419;SDS011;42323;52.170;7.538;2022-09-09T02:19:57;4.00;;;2.08;;
56419;SDS011;42323;52.170;7.538;2022-09-09T02:22:48;4.82;;;2.22;;
56419;SDS011;42323;52.170;7.538;2022-09-09T02:25:17;4.47;;;2.40;;
56419;SDS011;42323;52.170;7.538;2022-09-09T02:27:46;3.28;;;2.30;;
56419;SDS011;42323;52.170;7.538;2022-09-09T02:30:17;2.97;;;2.45;;
56419;SDS011;42323;52.170;7.538;2022-09-09T02:32:47;5.55;;;3.05;;
56419;SDS011;42323;52.170;7.538;2022-09-09T02:35:20;5.55;;;3.10;;
56419;SDS011;42323;52.170;7.538;2022-09-09T02:37:51;6.45;;;3.45;;
56419;SDS011;42323;52.170;7.538;2022-09-09T02:40:20;7.13;;;3.83;;
56419;SDS011;42323;52.170;7.538;2022-09-09T02:42:48;6.32;;;3.80;;
56419;SDS011;42323;52.170;7.538;2022-09-09T02:45:16;5.00;;;3.88;;
56419;SDS011;42323;52.170;7.538;2022-09-09T02:47:56;5.40;;;4.43;;
56419;SDS011;42323;52.170;7.538;2022-09-09T02:51:18;6.15;;;4.10;;
56419;SDS011;42323;52.170;7.538;2022-09-09T02:53:55;5.68;;;4.25;;
56419;SDS011;42323;52.170;7.538;2022-09-09T02:56:31;6.70;;;5.00;;
56419;SDS011;42323;52.170;7.538;2022-09-09T02:59:05;5.32;;;4.00;;
56419;SDS011;42323;52.170;7.538;2022-09-09T03:01:31;7.85;;;5.15;;
56419;SDS011;42323;52.170;7.538;2022-09-09T03:03:59;5.95;;;4.38;;
56419;SDS011;42323;52.170;7.538;2022-09-09T03:06:25;6.60;;;4.32;;
56419;SDS011;42323;52.170;7.538;2022-09-09T03:08:53;7.05;;;4.30;;
56419;SDS011;42323;52.170;7.538;2022-09-09T03:11:20;6.03;;;4.40;;
56419;SDS011;42323;52.170;7.538;2022-09-09T03:13:46;6.00;;;4.38;;
56419;SDS011;42323;52.170;7.538;2022-09-09T03:16:15;8.43;;;4.32;;
56419;SDS011;42323;52.170;7.538;2022-09-09T03:18:42;6.80;;;4.57;;
56419;SDS011;42323;52.170;7.538;2022-09-09T03:21:08;5.53;;;4.10;;
56419;SDS011;42323;52.170;7.538;2022-09-09T03:23:35;7.90;;;4.05;;
56419;SDS011;42323;52.170;7.538;2022-09-09T03:26:02;8.55;;;4.15;;
56419;SDS011;42323;52.170;7.538;2022-09-09T03:28:29;7.28;;;4.20;;
56419;SDS011;42323;52.170;7.538;2022-09-09T03:30:58;4.30;;;3.70;;
56419;SDS011;42323;52.170;7.538;2022-09-09T03:33:30;6.03;;;3.85;;
56419;SDS011;42323;52.170;7.538;2022-09-09T03:35:57;5.28;;;3.83;;
56419;SDS011;42323;52.170;7.538;2022-09-09T03:38:24;6.22;;;3.80;;
56419;SDS011;42323;52.170;7.538;2022-09-09T03:40:51;6.28;;;3.60;;
56419;SDS011;42323;52.170;7.538;2022-09-09T03:43:23;5.50;;;3.83;;
56419;SDS011;42323;52.170;7.538;2022-09-09T03:45:52;5.88;;;3.45;;
56419;SDS011;42323;52.170;7.538;2022-09-09T03:48:19;5.70;;;3.38;;
56419;SDS011;42323;52.170;7.538;2022-09-09T03:50:50;4.57;;;3.33;;
56419;SDS011;42323;52.170;7.538;2022-09-09T03:53:20;5.32;;;3.60;;
56419;SDS011;42323;52.170;7.538;2022-09-09T03:55:49;4.68;;;3.30;;
56419;SDS011;42323;52.170;7.538;2022-09-09T03:58:21;4.53;;;3.42;;
56419;SDS011;42323;52.170;7.538;2022-09-09T04:00:57;5.15;;;3.72;;
56419;SDS011;42323;52.170;7.538;2022-09-09T04:05:54;5.55;;;3.58;;
56419;SDS011;42323;52.170;7.538;2022-09-09T04:08:22;7.25;;;3.75;;
56419;SDS011;42323;52.170;7.538;2022-09-09T04:10:51;6.65;;;3.60;;
56419;SDS011;42323;52.170;7.538;2022-09-09T04:13:19;4.40;;;3.83;;
56419;SDS011;42323;52.170;7.538;2022-09-09T04:15:52;6.13;;;3.92;;
56419;SDS011;42323;52.170;7.538;2022-09-09T04:18:21;7.75;;;4.25;;
56419;SDS011;42323;52.170;7.538;2022-09-09T04:20:49;11.57;;;4.35;;
56419;SDS011;42323;52.170;7.538;2022-09-09T04:23:17;5.72;;;4.60;;
56419;SDS011;42323;52.170;7.538;2022-09-09T04:25:47;7.57;;;4.38;;
56419;SDS011;42323;52.170;7.538;2022-09-09T04:28:16;8.65;;;4.60;;
56419;SDS011;42323;52.170;7.538;2022-09-09T04:30:45;7.72;;;4.43;;
56419;SDS011;42323;52.170;7.538;2022-09-09T04:33:12;7.15;;;4.15;;
56419;SDS011;42323;52.170;7.538;2022-09-09T04:35:46;7.43;;;4.68;;
56419;SDS011;42323;52.170;7.538;2022-09-09T04:38:16;8.65;;;4.20;;
56419;SDS011;42323;52.170;7.538;2022-09-09T04:40:45;7.78;;;3.80;;
56419;SDS011;42323;52.170;7.538;2022-09-09T04:43:13;4.72;;;3.55;;
56419;SDS011;42323;52.170;7.538;2022-09-09T04:45:43;6.97;;;4.07;;
56419;SDS011;42323;52.170;7.538;2022-09-09T04:48:13;6.90;;;3.65;;
56419;SDS011;42323;52.170;7.538;2022-09-09T04:50:40;5.53;;;3.20;;
56419;SDS011;42323;52.170;7.538;2022-09-09T04:53:07;6.70;;;3.40;;
56419;SDS011;42323;52.170;7.538;2022-09-09T04:55:34;6.88;;;3.15;;
56419;SDS011;42323;52.170;7.538;2022-09-09T04:58:06;5.45;;;2.90;;
56419;SDS011;42323;52.170;7.538;2022-09-09T05:00:34;5.07;;;3.42;;
56419;SDS011;42323;52.170;7.538;2022-09-09T05:03:05;5.30;;;3.25;;
56419;SDS011;42323;52.170;7.538;2022-09-09T05:05:36;4.10;;;3.13;;
56419;SDS011;42323;52.170;7.538;2022-09-09T05:08:03;7.28;;;3.67;;
56419;SDS011;42323;52.170;7.538;2022-09-09T05:10:32;8.70;;;3.70;;
56419;SDS011;42323;52.170;7.538;2022-09-09T05:13:00;5.88;;;3.35;;
56419;SDS011;42323;52.170;7.538;2022-09-09T05:15:26;5.22;;;3.35;;
56419;SDS011;42323;52.170;7.538;2022-09-09T05:17:56;5.30;;;3.40;;
56419;SDS011;42323;52.170;7.538;2022-09-09T05:20:29;8.25;;;3.28;;
56419;SDS011;42323;52.170;7.538;2022-09-09T05:22:56;4.78;;;3.13;;
56419;SDS011;42323;52.170;7.538;2022-09-09T05:25:23;12.23;;;3.70;;
56419;SDS011;42323;52.170;7.538;2022-09-09T05:27:53;7.07;;;3.88;;
56419;SDS011;42323;52.170;7.538;2022-09-09T05:30:21;5.75;;;3.50;;
56419;SDS011;42323;52.170;7.538;2022-09-09T05:32:49;9.27;;;3.05;;
56419;SDS011;42323;52.170;7.538;2022-09-09T05:35:16;5.07;;;3.35;;
56419;SDS011;42323;52.170;7.538;2022-09-09T05:37:45;5.75;;;3.20;;
56419;SDS011;42323;52.170;7.538;2022-09-09T05:40:12;5.18;;;3.47;;
56419;SDS011;42323;52.170;7.538;2022-09-09T05:42:39;6.40;;;3.45;;
56419;SDS011;42323;52.170;7.538;2022-09-09T05:45:07;7.72;;;3.10;;
56419;SDS011;42323;52.170;7.538;2022-09-09T05:47:35;4.70;;;3.20;;
56419;SDS011;42323;52.170;7.538;2022-09-09T05:50:03;6.15;;;2.88;;
56419;SDS011;42323;52.170;7.538;2022-09-09T05:52:30;9.30;;;3.28;;
56419;SDS011;42323;52.170;7.538;2022-09-09T05:54:58;5.50;;;3.03;;
56419;SDS011;42323;52.170;7.538;2022-09-09T05:57:26;7.80;;;3.63;;
56419;SDS011;42323;52.170;7.538;2022-09-09T05:59:52;7.30;;;3.55;;
56419;SDS011;42323;52.170;7.538;2022-09-09T06:02:20;5.68;;;3.40;;
56419;SDS011;42323;52.170;7.538;2022-09-09T06:04:47;5.70;;;3.58;;
56419;SDS011;42323;52.170;7.538;2022-09-09T06:07:13;3.97;;;2.83;;
56419;SDS011;42323;52.170;7.538;2022-09-09T06:09:40;5.75;;;3.45;;
56419;SDS011;42323;52.170;7.538;2022-09-09T06:12:07;5.85;;;3.28;;
56419;SDS011;42323;52.170;7.538;2022-09-09T06:14:35;4.47;;;2.97;;
56419;SDS011;42323;52.170;7.538;2022-09-09T06:17:02;5.85;;;3.65;;
56419;SDS011;42323;52.170;7.538;2022-09-09T06:19:29;7.47;;;3.22;;
56419;SDS011;42323;52.170;7.538;2022-09-09T06:21:57;5.15;;;3.17;;
56419;SDS011;42323;52.170;7.538;2022-09-09T06:24:23;4.78;;;3.20;;
56419;SDS011;42323;52.170;7.538;2022-09-09T06:26:50;6.30;;;2.85;;
56419;SDS011;42323;52.170;7.538;2022-09-09T06:29:17;7.68;;;3.50;;
56419;SDS011;42323;52.170;7.538;2022-09-09T06:31:43;6.07;;;4.03;;
56419;SDS011;42323;52.170;7.538;2022-09-09T06:34:11;4.20;;;2.80;;
56419;SDS011;42323;52.170;7.538;2022-09-09T06:36:37;5.05;;;3.28;;
56419;SDS011;42323;52.170;7.538;2022-09-09T06:39:05;5.25;;;3.10;;
56419;SDS011;42323;52.170;7.538;2022-09-09T06:41:39;4.32;;;2.55;;
56419;SDS011;42323;52.170;7.538;2022-09-09T06:44:07;6.43;;;3.17;;
56419;SDS011;42323;52.170;7.538;2022-09-09T06:46:34;5.05;;;2.55;;
56419;SDS011;42323;52.170;7.538;2022-09-09T06:49:02;4.68;;;2.33;;
56419;SDS011;42323;52.170;7.538;2022-09-09T06:51:29;4.72;;;2.90;;
56419;SDS011;42323;52.170;7.538;2022-09-09T06:53:58;3.45;;;2.53;;
56419;SDS011;42323;52.170;7.538;2022-09-09T06:56:33;4.53;;;2.60;;
56419;SDS011;42323;52.170;7.538;2022-09-09T06:59:02;4.82;;;2.47;;
56419;SDS011;42323;52.170;7.538;2022-09-09T07:01:32;4.38;;;2.35;;
56419;SDS011;42323;52.170;7.538;2022-09-09T07:04:00;3.97;;;2.80;;
56419;SDS011;42323;52.170;7.538;2022-09-09T07:06:29;6.13;;;2.67;;
56419;SDS011;42323;52.170;7.538;2022-09-09T07:08:57;6.75;;;2.42;;
56419;SDS011;42323;52.170;7.538;2022-09-09T07:11:27;3.85;;;2.50;;
56419;SDS011;42323;52.170;7.538;2022-09-09T07:13:56;5.90;;;2.50;;
56419;SDS011;42323;52.170;7.538;2022-09-09T07:16:24;3.97;;;2.45;;
56419;SDS011;42323;52.170;7.538;2022-09-09T07:18:52;5.50;;;2.53;;
56419;SDS011;42323;52.170;7.538;2022-09-09T07:21:24;4.30;;;2.33;;
56419;SDS011;42323;52.170;7.538;2022-09-09T07:23:52;6.25;;;2.55;;
56419;SDS011;42323;52.170;7.538;2022-09-09T07:26:22;3.70;;;2.45;;
56419;SDS011;42323;52.170;7.538;2022-09-09T07:28:50;6.57;;;2.53;;
56419;SDS011;42323;52.170;7.538;2022-09-09T07:31:18;4.30;;;2.40;;
56419;SDS011;42323;52.170;7.538;2022-09-09T07:33:47;4.65;;;2.38;;
56419;SDS011;42323;52.170;7.538;2022-09-09T07:36:21;5.15;;;2.33;;
56419;SDS011;42323;52.170;7.538;2022-09-09T07:38:54;5.43;;;2.40;;
56419;SDS011;42323;52.170;7.538;2022-09-09T07:41:27;3.88;;;2.45;;
56419;SDS011;42323;52.170;7.538;2022-09-09T07:43:56;6.32;;;2.42;;
56419;SDS011;42323;52.170;7.538;2022-09-09T07:46:23;5.20;;;2.40;;
56419;SDS011;42323;52.170;7.538;2022-09-09T07:48:53;4.82;;;2.70;;
56419;SDS011;42323;52.170;7.538;2022-09-09T07:51:26;6.10;;;2.35;;
56419;SDS011;42323;52.170;7.538;2022-09-09T07:53:56;6.28;;;3.13;;
56419;SDS011;42323;52.170;7.538;2022-09-09T07:56:28;4.45;;;2.55;;
56419;SDS011;42323;52.170;7.538;2022-09-09T07:58:59;6.88;;;2.70;;
56419;SDS011;42323;52.170;7.538;2022-09-09T08:01:33;4.38;;;2.45;;
56419;SDS011;42323;52.170;7.538;2022-09-09T08:04:04;8.25;;;2.40;;
56419;SDS011;42323;52.170;7.538;2022-09-09T08:06:35;6.40;;;2.30;;
56419;SDS011;42323;52.170;7.538;2022-09-09T08:09:05;4.18;;;2.08;;
56419;SDS011;42323;52.170;7.538;2022-09-09T08:11:33;5.22;;;2.55;;
56419;SDS011;42323;52.170;7.538;2022-09-09T08:14:05;7.03;;;1.90;;
56419;SDS011;42323;52.170;7.538;2022-09-09T08:16:37;5.40;;;2.40;;
56419;SDS011;42323;52.170;7.538;2022-09-09T08:19:05;5.25;;;2.20;;
56419;SDS011;42323;52.170;7.538;2022-09-09T08:21:34;6.50;;;2.28;;
56419;SDS011;42323;52.170;7.538;2022-09-09T08:24:03;6.20;;;2.05;;
56419;SDS011;42323;52.170;7.538;2022-09-09T08:26:34;3.97;;;1.80;;
56419;SDS011;42323;52.170;7.538;2022-09-09T08:29:04;4.78;;;1.92;;
56419;SDS011;42323;52.170;7.538;2022-09-09T08:31:34;6.03;;;2.10;;
56419;SDS011;42323;52.170;7.538;2022-09-09T08:34:03;5.25;;;1.83;;
56419;SDS011;42323;52.170;7.538;2022-09-09T08:36:32;3.97;;;1.60;;
56419;SDS011;42323;52.170;7.538;2022-09-09T08:39:00;5.93;;;1.83;;
56419;SDS011;42323;52.170;7.538;2022-09-09T08:58:28;6.13;;;1.90;;
56419;SDS011;42323;52.170;7.538;2022-09-09T09:09:11;5.83;;;2.47;;
56419;SDS011;42323;52.170;7.538;2022-09-09T09:12:06;4.97;;;2.97;;
56419;SDS011;42323;52.170;7.538;2022-09-09T09:14:43;4.03;;;2.40;;
56419;SDS011;42323;52.170;7.538;2022-09-09T09:17:15;5.22;;;2.83;;
56419;SDS011;42323;52.170;7.538;2022-09-09T09:19:47;5.22;;;2.80;;
56419;SDS011;42323;52.170;7.538;2022-09-09T09:22:18;6.35;;;2.50;;
56419;SDS011;42323;52.170;7.538;2022-09-09T09:30:15;4.18;;;2.83;;
56419;SDS011;42323;52.170;7.538;2022-09-09T09:32:55;7.25;;;3.10;;
56419;SDS011;42323;52.170;7.538;2022-09-09T09:35:26;3.78;;;2.67;;
56419;SDS011;42323;52.170;7.538;2022-09-09T09:37:53;6.20;;;2.97;;
56419;SDS011;42323;52.170;7.538;2022-09-09T09:40:47;7.22;;;2.72;;
56419;SDS011;42323;52.170;7.538;2022-09-09T09:45:54;5.55;;;2.58;;
56419;SDS011;42323;52.170;7.538;2022-09-09T09:48:41;4.35;;;2.50;;
56419;SDS011;42323;52.170;7.538;2022-09-09T09:51:09;3.85;;;2.40;;
56419;SDS011;42323;52.170;7.538;2022-09-09T09:53:41;6.72;;;2.90;;
56419;SDS011;42323;52.170;7.538;2022-09-09T09:56:09;3.85;;;2.35;;
56419;SDS011;42323;52.170;7.538;2022-09-09T10:01:28;5.50;;;2.13;;
56419;SDS011;42323;52.170;7.538;2022-09-09T10:04:00;3.47;;;2.50;;
56419;SDS011;42323;52.170;7.538;2022-09-09T10:06:50;5.75;;;2.83;;
56419;SDS011;42323;52.170;7.538;2022-09-09T10:09:21;5.95;;;3.13;;
56419;SDS011;42323;52.170;7.538;2022-09-09T10:12:10;5.35;;;2.72;;
56419;SDS011;42323;52.170;7.538;2022-09-09T10:17:36;4.00;;;2.30;;
56419;SDS011;42323;52.170;7.538;2022-09-09T10:29:20;6.50;;;1.92;;
56419;SDS011;42323;52.170;7.538;2022-09-09T10:40:46;2.80;;;1.10;;
56419;SDS011;42323;52.170;7.538;2022-09-09T10:46:35;2.47;;;1.25;;
56419;SDS011;42323;52.170;7.538;2022-09-09T10:52:19;4.22;;;1.60;;
56419;SDS011;42323;52.170;7.538;2022-09-09T10:57:48;2.10;;;1.20;;
56419;SDS011;42323;52.170;7.538;2022-09-09T11:00:19;6.72;;;1.10;;
56419;SDS011;42323;52.170;7.538;2022-09-09T11:02:55;3.63;;;1.30;;
56419;SDS011;42323;52.170;7.538;2022-09-09T11:13:26;2.20;;;0.90;;
56419;SDS011;42323;52.170;7.538;2022-09-09T11:15:58;2.83;;;1.10;;
56419;SDS011;42323;52.170;7.538;2022-09-09T11:18:32;4.15;;;1.10;;
56419;SDS011;42323;52.170;7.538;2022-09-09T11:21:07;3.97;;;0.98;;
56419;SDS011;42323;52.170;7.538;2022-09-09T11:23:40;3.55;;;0.90;;
56419;SDS011;42323;52.170;7.538;2022-09-09T11:26:13;3.08;;;0.98;;
56419;SDS011;42323;52.170;7.538;2022-09-09T11:34:37;2.50;;;0.95;;
56419;SDS011;42323;52.170;7.538;2022-09-09T11:42:36;2.65;;;1.10;;
56419;SDS011;42323;52.170;7.538;2022-09-09T11:45:36;3.28;;;0.90;;
56419;SDS011;42323;52.170;7.538;2022-09-09T11:47:57;3.75;;;1.10;;
56419;SDS011;42323;52.170;7.538;2022-09-09T11:53:03;4.07;;;1.13;;
56419;SDS011;42323;52.170;7.538;2022-09-09T11:56:07;4.57;;;1.05;;
56419;SDS011;42323;52.170;7.538;2022-09-09T11:58:38;3.25;;;1.00;;
56419;SDS011;42323;52.170;7.538;2022-09-09T12:01:14;1.80;;;1.00;;
56419;SDS011;42323;52.170;7.538;2022-09-09T12:06:51;3.63;;;1.30;;
56419;SDS011;42323;52.170;7.538;2022-09-09T12:17:15;2.40;;;1.10;;
56419;SDS011;42323;52.170;7.538;2022-09-09T12:19:46;4.25;;;1.50;;
56419;SDS011;42323;52.170;7.538;2022-09-09T12:27:46;3.72;;;1.33;;
56419;SDS011;42323;52.170;7.538;2022-09-09T12:30:17;3.00;;;1.15;;
56419;SDS011;42323;52.170;7.538;2022-09-09T12:32:44;6.82;;;1.30;;
56419;SDS011;42323;52.170;7.538;2022-09-09T12:35:32;2.85;;;1.30;;
56419;SDS011;42323;52.170;7.538;2022-09-09T12:37:58;2.30;;;1.02;;
56419;SDS011;42323;52.170;7.538;2022-09-09T12:40:31;4.07;;;1.10;;
56419;SDS011;42323;52.170;7.538;2022-09-09T12:43:02;3.25;;;1.00;;
56419;SDS011;42323;52.170;7.538;2022-09-09T12:45:43;3.22;;;1.00;;
56419;SDS011;42323;52.170;7.538;2022-09-09T12:48:11;3.20;;;0.77;;
56419;SDS011;42323;52.170;7.538;2022-09-09T12:50:46;1.85;;;0.70;;
56419;SDS011;42323;52.170;7.538;2022-09-09T12:53:21;2.77;;;1.03;;
56419;SDS011;42323;52.170;7.538;2022-09-09T12:58:24;3.50;;;0.90;;
56419;SDS011;42323;52.170;7.538;2022-09-09T13:00:55;2.17;;;1.08;;
56419;SDS011;42323;52.170;7.538;2022-09-09T13:03:23;3.22;;;0.90;;
56419;SDS011;42323;52.170;7.538;2022-09-09T13:05:51;3.35;;;0.73;;
56419;SDS011;42323;52.170;7.538;2022-09-09T13:08:20;1.80;;;0.98;;
56419;SDS011;42323;52.170;7.538;2022-09-09T13:10:51;3.00;;;0.90;;
56419;SDS011;42323;52.170;7.538;2022-09-09T13:16:02;2.53;;;0.90;;
56419;SDS011;42323;52.170;7.538;2022-09-09T13:18:34;1.58;;;1.00;;
56419;SDS011;42323;52.170;7.538;2022-09-09T13:21:04;2.30;;;0.90;;
56419;SDS011;42323;52.170;7.538;2022-09-09T13:23:34;3.25;;;1.00;;
56419;SDS011;42323;52.170;7.538;2022-09-09T13:26:04;3.20;;;1.00;;
56419;SDS011;42323;52.170;7.538;2022-09-09T13:28:47;2.80;;;0.98;;
56419;SDS011;42323;52.170;7.538;2022-09-09T13:31:24;3.10;;;0.93;;
56419;SDS011;42323;52.170;7.538;2022-09-09T13:33:55;2.03;;;0.80;;
56419;SDS011;42323;52.170;7.538;2022-09-09T13:36:31;1.83;;;0.75;;
56419;SDS011;42323;52.170;7.538;2022-09-09T13:38:59;2.63;;;0.80;;
56419;SDS011;42323;52.170;7.538;2022-09-09T13:41:35;2.63;;;0.90;;
56419;SDS011;42323;52.170;7.538;2022-09-09T13:44:17;2.53;;;0.90;;
56419;SDS011;42323;52.170;7.538;2022-09-09T13:47:00;1.38;;;0.95;;
56419;SDS011;42323;52.170;7.538;2022-09-09T13:49:34;2.72;;;1.15;;
56419;SDS011;42323;52.170;7.538;2022-09-09T13:52:05;3.78;;;1.10;;
56419;SDS011;42323;52.170;7.538;2022-09-09T13:54:36;3.28;;;1.30;;
56419;SDS011;42323;52.170;7.538;2022-09-09T13:57:03;1.55;;;0.77;;
56419;SDS011;42323;52.170;7.538;2022-09-09T13:59:30;3.05;;;1.10;;
56419;SDS011;42323;52.170;7.538;2022-09-09T14:02:18;4.22;;;1.30;;
56419;SDS011;42323;52.170;7.538;2022-09-09T14:04:45;2.42;;;0.95;;
56419;SDS011;42323;52.170;7.538;2022-09-09T14:07:13;1.55;;;0.90;;
56419;SDS011;42323;52.170;7.538;2022-09-09T14:09:42;3.53;;;1.13;;
56419;SDS011;42323;52.170;7.538;2022-09-09T14:12:11;1.73;;;1.08;;
56419;SDS011;42323;52.170;7.538;2022-09-09T14:14:39;2.38;;;1.10;;
56419;SDS011;42323;52.170;7.538;2022-09-09T14:17:06;2.10;;;1.30;;
56419;SDS011;42323;52.170;7.538;2022-09-09T14:19:33;1.67;;;1.10;;
56419;SDS011;42323;52.170;7.538;2022-09-09T14:22:00;1.75;;;1.20;;
56419;SDS011;42323;52.170;7.538;2022-09-09T14:24:30;1.38;;;1.27;;
56419;SDS011;42323;52.170;7.538;2022-09-09T14:26:57;3.78;;;1.38;;
56419;SDS011;42323;52.170;7.538;2022-09-09T14:29:24;3.08;;;1.10;;
56419;SDS011;42323;52.170;7.538;2022-09-09T14:31:52;2.35;;;1.67;;
56419;SDS011;42323;52.170;7.538;2022-09-09T14:34:19;3.47;;;1.98;;
56419;SDS011;42323;52.170;7.538;2022-09-09T14:36:46;2.83;;;2.33;;
56419;SDS011;42323;52.170;7.538;2022-09-09T14:39:13;4.13;;;2.00;;
56419;SDS011;42323;52.170;7.538;2022-09-09T14:41:40;2.75;;;2.25;;
56419;SDS011;42323;52.170;7.538;2022-09-09T14:44:07;2.67;;;2.35;;
56419;SDS011;42323;52.170;7.538;2022-09-09T14:46:34;2.08;;;1.75;;
56419;SDS011;42323;52.170;7.538;2022-09-09T14:49:01;3.53;;;2.28;;
56419;SDS011;42323;52.170;7.538;2022-09-09T14:51:28;3.00;;;2.33;;
56419;SDS011;42323;52.170;7.538;2022-09-09T14:53:56;2.97;;;2.13;;
56419;SDS011;42323;52.170;7.538;2022-09-09T14:56:26;3.72;;;2.03;;
56419;SDS011;42323;52.170;7.538;2022-09-09T14:58:56;3.90;;;2.13;;
56419;SDS011;42323;52.170;7.538;2022-09-09T15:01:27;2.75;;;1.92;;
56419;SDS011;42323;52.170;7.538;2022-09-09T15:03:56;4.90;;;1.88;;
56419;SDS011;42323;52.170;7.538;2022-09-09T15:06:25;3.75;;;2.08;;
56419;SDS011;42323;52.170;7.538;2022-09-09T15:08:54;4.38;;;2.70;;
56419;SDS011;42323;52.170;7.538;2022-09-09T15:11:25;3.00;;;2.17;;
56419;SDS011;42323;52.170;7.538;2022-09-09T15:13:54;3.55;;;2.08;;
56419;SDS011;42323;52.170;7.538;2022-09-09T15:16:21;2.33;;;1.77;;
56419;SDS011;42323;52.170;7.538;2022-09-09T15:18:56;3.17;;;1.90;;
56419;SDS011;42323;52.170;7.538;2022-09-09T15:21:25;1.80;;;1.48;;
56419;SDS011;42323;52.170;7.538;2022-09-09T15:23:54;4.57;;;1.65;;
56419;SDS011;42323;52.170;7.538;2022-09-09T15:26:22;1.98;;;1.40;;
56419;SDS011;42323;52.170;7.538;2022-09-09T15:28:50;2.35;;;1.58;;
56419;SDS011;42323;52.170;7.538;2022-09-09T15:31:19;3.47;;;1.50;;
56419;SDS011;42323;52.170;7.538;2022-09-09T15:33:51;2.53;;;1.60;;
56419;SDS011;42323;52.170;7.538;2022-09-09T15:36:29;2.42;;;1.60;;
56419;SDS011;42323;52.170;7.538;2022-09-09T15:38:59;3.00;;;1.40;;
56419;SDS011;42323;52.170;7.538;2022-09-09T15:41:26;2.65;;;1.25;;
56419;SDS011;42323;52.170;7.538;2022-09-09T15:43:54;2.38;;;0.98;;
56419;SDS011;42323;52.170;7.538;2022-09-09T15:49:03;2.38;;;0.88;;
56419;SDS011;42323;52.170;7.538;2022-09-09T15:51:31;2.83;;;0.90;;
56419;SDS011;42323;52.170;7.538;2022-09-09T15:54:15;1.63;;;0.88;;
56419;SDS011;42323;52.170;7.538;2022-09-09T15:56:45;2.30;;;0.80;;
56419;SDS011;42323;52.170;7.538;2022-09-09T15:59:15;2.25;;;0.90;;
56419;SDS011;42323;52.170;7.538;2022-09-09T16:01:42;1.83;;;0.85;;
56419;SDS011;42323;52.170;7.538;2022-09-09T16:04:10;0.70;;;0.65;;
56419;SDS011;42323;52.170;7.538;2022-09-09T16:06:38;1.45;;;0.75;;
56419;SDS011;42323;52.170;7.538;2022-09-09T16:09:06;4.03;;;1.00;;
56419;SDS011;42323;52.170;7.538;2022-09-09T16:11:34;1.13;;;0.80;;
56419;SDS011;42323;52.170;7.538;2022-09-09T16:14:03;1.50;;;0.80;;
56419;SDS011;42323;52.170;7.538;2022-09-09T16:16:32;1.75;;;0.88;;
56419;SDS011;42323;52.170;7.538;2022-09-09T16:18:59;2.45;;;0.85;;
56419;SDS011;42323;52.170;7.538;2022-09-09T16:21:31;3.03;;;1.10;;
56419;SDS011;42323;52.170;7.538;2022-09-09T16:24:04;3.35;;;1.05;;
56419;SDS011;42323;52.170;7.538;2022-09-09T16:26:33;2.58;;;0.90;;
56419;SDS011;42323;52.170;7.538;2022-09-09T16:29:02;1.70;;;1.00;;
56419;SDS011;42323;52.170;7.538;2022-09-09T16:31:29;2.30;;;0.80;;
56419;SDS011;42323;52.170;7.538;2022-09-09T16:34:00;3.53;;;0.98;;
56419;SDS011;42323;52.170;7.538;2022-09-09T16:36:28;2.70;;;1.23;;
56419;SDS011;42323;52.170;7.538;2022-09-09T16:38:57;3.30;;;1.10;;
56419;SDS011;42323;52.170;7.538;2022-09-09T16:41:26;5.88;;;1.30;;
56419;SDS011;42323;52.170;7.538;2022-09-09T16:43:54;3.17;;;1.48;;
56419;SDS011;42323;52.170;7.538;2022-09-09T16:46:23;3.20;;;1.45;;
56419;SDS011;42323;52.170;7.538;2022-09-09T16:48:51;3.55;;;1.50;;
56419;SDS011;42323;52.170;7.538;2022-09-09T16:51:22;4.85;;;1.60;;
56419;SDS011;42323;52.170;7.538;2022-09-09T16:53:54;4.80;;;1.60;;
56419;SDS011;42323;52.170;7.538;2022-09-09T16:56:24;3.10;;;1.80;;
56419;SDS011;42323;52.170;7.538;2022-09-09T16:58:54;2.92;;;1.50;;
56419;SDS011;42323;52.170;7.538;2022-09-09T17:01:23;4.00;;;1.52;;
56419;SDS011;42323;52.170;7.538;2022-09-09T17:03:54;3.85;;;1.67;;
56419;SDS011;42323;52.170;7.538;2022-09-09T17:06:27;2.25;;;1.40;;
56419;SDS011;42323;52.170;7.538;2022-09-09T17:08:58;1.50;;;1.30;;
56419;SDS011;42323;52.170;7.538;2022-09-09T17:11:28;2.28;;;1.20;;
56419;SDS011;42323;52.170;7.538;2022-09-09T17:13:56;1.95;;;1.10;;
56419;SDS011;42323;52.170;7.538;2022-09-09T17:16:25;2.47;;;1.30;;
56419;SDS011;42323;52.170;7.538;2022-09-09T17:18:54;2.65;;;1.40;;
56419;SDS011;42323;52.170;7.538;2022-09-09T17:21:23;3.33;;;1.98;;
56419;SDS011;42323;52.170;7.538;2022-09-09T17:23:51;1.83;;;1.40;;
56419;SDS011;42323;52.170;7.538;2022-09-09T17:26:21;2.10;;;1.33;;
56419;SDS011;42323;52.170;7.538;2022-09-09T17:28:53;1.85;;;1.52;;
56419;SDS011;42323;52.170;7.538;2022-09-09T17:31:25;2.83;;;1.92;;
56419;SDS011;42323;52.170;7.538;2022-09-09T17:33:52;2.78;;;1.75;;
56419;SDS011;42323;52.170;7.538;2022-09-09T17:36:21;5.97;;;2.22;;
56419;SDS011;42323;52.170;7.538;2022-09-09T17:38:48;4.38;;;2.40;;
56419;SDS011;42323;52.170;7.538;2022-09-09T17:41:17;5.70;;;2.70;;
56419;SDS011;42323;52.170;7.538;2022-09-09T17:43:48;4.40;;;2.38;;
56419;SDS011;42323;52.170;7.538;2022-09-09T17:46:17;4.95;;;2.30;;
56419;SDS011;42323;52.170;7.538;2022-09-09T17:48:55;4.10;;;2.50;;
56419;SDS011;42323;52.170;7.538;2022-09-09T17:51:25;5.30;;;2.80;;
56419;SDS011;42323;52.170;7.538;2022-09-09T17:53:54;5.75;;;2.50;;
56419;SDS011;42323;52.170;7.538;2022-09-09T17:56:25;3.55;;;2.30;;